createdAt,value
2019-03-16T00:01:56.632Z,96719.01
2019-03-16T00:04:15.104Z,96718.21
2019-03-16T00:06:43.496Z,96722.87
2019-03-16T00:09:11.877Z,96729.33
2019-03-16T00:11:40.267Z,96726.86
2019-03-16T00:14:08.646Z,96729.11
2019-03-16T00:16:37.071Z,96735.62
2019-03-16T00:19:05.522Z,96724.53
2019-03-16T00:21:33.897Z,96734.49
2019-03-16T00:24:02.278Z,96740.02
2019-03-16T00:26:31.134Z,96731.38
2019-03-16T00:28:59.510Z,96738.60
2019-03-16T00:31:27.890Z,96732.91
2019-03-16T00:33:56.269Z,96727.62
2019-03-16T00:36:24.668Z,96732.28
2019-03-16T00:38:53.067Z,96729.44
2019-03-16T00:41:21.455Z,96727.62
2019-03-16T00:43:49.837Z,96738.07
2019-03-16T00:46:18.224Z,96726.98
2019-03-16T00:48:46.603Z,96729.56
2019-03-16T00:51:15.025Z,96725.70
2019-03-16T00:53:43.404Z,96727.81
2019-03-16T00:56:11.787Z,96732.15
2019-03-16T00:58:40.161Z,96719.11
2019-03-16T01:01:08.541Z,96735.23
2019-03-16T01:03:36.920Z,96728.71
2019-03-16T01:06:05.307Z,96725.83
2019-03-16T01:08:33.687Z,96733.31
2019-03-16T01:11:02.066Z,96731.25
2019-03-16T01:13:30.449Z,96731.63
2019-03-16T01:15:58.831Z,96734.20
2019-03-16T01:18:27.269Z,96739.77
2019-03-16T01:20:55.654Z,96740.66
2019-03-16T01:23:24.030Z,96753.56
2019-03-16T01:25:52.487Z,96748.46
2019-03-16T01:28:20.859Z,96755.25
2019-03-16T01:30:49.250Z,96752.67
2019-03-16T01:33:18.061Z,96750.42
2019-03-16T01:35:46.446Z,96759.52
2019-03-16T01:38:14.845Z,96754.29
2019-03-16T01:40:43.237Z,96754.29
2019-03-16T01:43:11.683Z,96755.88
2019-03-16T01:45:40.056Z,96754.72
2019-03-16T01:48:08.445Z,96763.88
2019-03-16T01:50:36.825Z,96761.70
2019-03-16T01:53:05.205Z,96760.34
2019-03-16T01:55:33.587Z,96762.99
2019-03-16T01:58:01.962Z,96753.56
2019-03-16T02:00:30.353Z,96759.77
2019-03-16T02:02:58.726Z,96757.20
2019-03-16T02:05:27.111Z,96760.66
2019-03-16T02:07:55.517Z,96764.17
2019-03-16T02:10:23.905Z,96766.23
2019-03-16T02:12:52.294Z,96753.05
2019-03-16T02:15:20.658Z,96762.61
2019-03-16T02:17:49.052Z,96777.91
2019-03-16T02:20:17.525Z,96773.57
2019-03-16T02:22:45.882Z,96772.74
2019-03-16T02:25:14.381Z,96784.66
2019-03-16T02:27:42.720Z,96786.11
2019-03-16T02:30:12.353Z,96780.42
2019-03-16T02:32:40.726Z,96787.40
2019-03-16T02:35:09.182Z,96781.25
2019-03-16T02:37:37.629Z,96790.62
2019-03-16T02:40:08.792Z,96786.22
2019-03-16T02:42:37.136Z,96794.86
2019-03-16T02:45:07.976Z,96800.55
2019-03-16T02:47:36.442Z,96803.12
2019-03-16T02:50:06.867Z,96811.27
2019-03-16T02:52:35.246Z,96800.42
2019-03-16T02:55:04.198Z,96797.44
2019-03-16T02:57:32.594Z,96808.69
2019-03-16T03:00:00.969Z,96790.55
2019-03-16T03:02:29.358Z,96808.34
2019-03-16T03:04:57.809Z,96802.72
2019-03-16T03:07:26.183Z,96806.75
2019-03-16T03:09:54.618Z,96805.95
2019-03-16T03:12:22.993Z,96812.80
2019-03-16T03:14:51.373Z,96811.91
2019-03-16T03:17:19.763Z,96809.83
2019-03-16T03:19:48.143Z,96819.26
2019-03-16T03:22:16.533Z,96812.04
2019-03-16T03:24:44.983Z,96812.88
2019-03-16T03:27:13.374Z,96829.24
2019-03-16T03:29:41.776Z,96839.91
2019-03-16T03:32:10.174Z,96836.44
2019-03-16T03:34:38.569Z,96855.39
2019-03-16T03:37:06.958Z,96842.73
2019-03-16T03:39:35.344Z,96851.39
2019-03-16T03:42:03.864Z,96847.13
2019-03-16T03:44:32.309Z,96851.92
2019-03-16T03:47:00.728Z,96857.20
2019-03-16T03:49:29.114Z,96860.80
2019-03-16T03:51:57.499Z,96858.09
2019-03-16T03:54:25.987Z,96861.08
2019-03-16T03:56:54.428Z,96855.05
2019-03-16T03:59:22.806Z,96860.27
2019-03-16T04:01:51.191Z,96862.48
2019-03-16T04:04:19.568Z,96861.32
2019-03-16T04:06:47.948Z,96864.39
2019-03-16T04:09:16.391Z,96871.42
2019-03-16T04:11:44.752Z,96873.17
2019-03-16T04:14:13.136Z,96885.67
2019-03-16T04:16:41.515Z,96882.72
2019-03-16T04:19:09.895Z,96889.66
2019-03-16T04:21:38.275Z,96891.41
2019-03-16T04:24:06.724Z,96895.74
2019-03-16T04:26:35.107Z,96897.52
2019-03-16T04:29:03.640Z,96910.05
2019-03-16T04:31:32.003Z,96908.70
2019-03-16T04:34:00.376Z,96903.48
2019-03-16T04:36:28.763Z,96895.80
2019-03-16T04:38:57.151Z,96904.38
2019-03-16T04:41:25.533Z,96904.72
2019-03-16T04:43:53.912Z,96916.44
2019-03-16T04:46:22.312Z,96923.31
2019-03-16T04:48:50.708Z,96921.14
2019-03-16T04:51:19.088Z,96927.70
2019-03-16T04:53:47.461Z,96928.23
2019-03-16T04:56:15.845Z,96921.78
2019-03-16T04:58:44.224Z,96920.55
2019-03-16T05:01:12.612Z,96914.16
2019-03-16T05:03:40.989Z,96932.64
2019-03-16T05:06:09.379Z,96923.13
2019-03-16T05:08:38.103Z,96929.63
2019-03-16T05:11:06.487Z,96927.05
2019-03-16T05:13:34.863Z,96927.05
2019-03-16T05:16:03.242Z,96928.71
2019-03-16T05:18:31.629Z,96932.58
2019-03-16T05:21:00.021Z,96940.32
2019-03-16T05:23:28.402Z,96939.95
2019-03-16T05:25:56.792Z,96947.69
2019-03-16T05:28:25.251Z,96949.87
2019-03-16T05:30:53.637Z,96961.88
2019-03-16T05:33:22.019Z,96961.47
2019-03-16T05:35:50.410Z,96964.00
2019-03-16T05:38:18.785Z,96965.69
2019-03-16T05:40:47.173Z,96975.14
2019-03-16T05:43:15.551Z,96975.20
2019-03-16T05:45:43.969Z,96970.97
2019-03-16T05:48:12.348Z,96978.70
2019-03-16T05:50:40.735Z,96967.15
2019-03-16T05:53:09.105Z,96965.86
2019-03-16T05:55:37.479Z,96967.52
2019-03-16T05:58:05.939Z,96971.45
2019-03-16T06:00:34.319Z,96971.02
2019-03-16T06:03:02.703Z,96981.70
2019-03-16T06:05:31.089Z,96976.18
2019-03-16T06:07:59.509Z,96982.23
2019-03-16T06:10:27.926Z,96988.67
2019-03-16T06:12:56.400Z,97000.69
2019-03-16T06:15:24.778Z,97003.27
2019-03-16T06:17:53.234Z,97003.69
2019-03-16T06:20:21.618Z,97007.96
2019-03-16T06:22:49.991Z,97015.24
2019-03-16T06:25:18.372Z,97014.36
2019-03-16T06:27:46.796Z,97025.97
2019-03-16T06:30:16.022Z,97026.85
2019-03-16T06:32:44.394Z,97039.75
2019-03-16T06:35:23.928Z,97033.81
2019-03-16T06:37:42.990Z,97046.71
2019-03-16T06:40:12.123Z,97046.71
2019-03-16T06:42:40.516Z,97049.70
2019-03-16T06:45:10.547Z,97049.30
2019-03-16T06:47:38.926Z,97057.80
2019-03-16T06:50:12.761Z,97054.86
2019-03-16T06:52:41.191Z,97046.20
2019-03-16T06:55:09.706Z,97041.45
2019-03-16T06:57:38.085Z,97044.80
2019-03-16T07:00:09.511Z,97053.40
2019-03-16T07:02:37.904Z,97053.34
2019-03-16T07:05:09.327Z,97050.25
2019-03-16T07:07:37.802Z,97051.54
2019-03-16T07:10:09.202Z,97053.23
2019-03-16T07:12:37.588Z,97061.41
2019-03-16T07:15:08.709Z,97061.86
2019-03-16T07:17:37.085Z,97064.44
2019-03-16T07:20:07.908Z,97066.56
2019-03-16T07:22:36.285Z,97065.73
2019-03-16T07:25:05.017Z,97063.55
2019-03-16T07:27:33.391Z,97062.27
2019-03-16T07:30:01.778Z,97066.56
2019-03-16T07:32:30.161Z,97066.91
2019-03-16T07:34:58.537Z,97071.19
2019-03-16T07:37:26.929Z,97070.27
2019-03-16T07:39:55.310Z,97072.36
2019-03-16T07:42:23.684Z,97073.66
2019-03-16T07:44:52.070Z,97075.83
2019-03-16T07:47:20.448Z,97071.96
2019-03-16T07:49:48.827Z,97077.13
2019-03-16T07:52:17.210Z,97075.72
2019-03-16T07:54:45.614Z,97079.97
2019-03-16T07:57:14.004Z,97079.13
2019-03-16T07:59:42.391Z,97079.59
2019-03-16T08:02:10.765Z,97076.23
2019-03-16T08:04:43.310Z,97077.13
2019-03-16T08:07:10.218Z,97081.45
2019-03-16T08:09:38.590Z,97078.01
2019-03-16T08:12:06.969Z,97074.55
2019-03-16T08:14:35.365Z,97073.25
2019-03-16T08:17:03.753Z,97079.30
2019-03-16T08:19:32.133Z,97081.87
2019-03-16T08:22:00.581Z,97081.87
2019-03-16T08:24:28.955Z,97083.17
2019-03-16T08:26:57.337Z,97079.30
2019-03-16T08:29:25.717Z,97082.28
2019-03-16T08:31:54.099Z,97084.86
2019-03-16T08:34:22.475Z,97087.44
2019-03-16T08:36:50.857Z,97098.17
2019-03-16T08:39:19.247Z,97096.07
2019-03-16T08:41:47.632Z,97106.39
2019-03-16T08:44:16.048Z,97096.02
2019-03-16T08:46:45.351Z,97098.48
2019-03-16T08:49:13.742Z,97099.20
2019-03-16T08:51:42.139Z,97100.90
2019-03-16T08:54:10.512Z,97099.16
2019-03-16T08:56:38.896Z,97105.95
2019-03-16T08:59:07.274Z,97105.44
2019-03-16T09:01:35.687Z,97108.48
2019-03-16T09:04:04.039Z,97109.77
2019-03-16T09:06:32.414Z,97118.80
2019-03-16T09:09:00.799Z,97118.40
2019-03-16T09:11:29.181Z,97124.42
2019-03-16T09:13:57.563Z,97121.84
2019-03-16T09:16:25.938Z,97124.42
2019-03-16T09:18:54.339Z,97130.88
2019-03-16T09:21:22.713Z,97130.47
2019-03-16T09:23:51.093Z,97136.92
2019-03-16T09:26:19.484Z,97133.51
2019-03-16T09:28:59.333Z,97141.20
2019-03-16T09:31:17.982Z,97141.20
2019-03-16T09:33:46.409Z,97138.73
2019-03-16T09:36:14.775Z,97144.77
2019-03-16T09:38:43.163Z,97146.06
2019-03-16T09:41:11.541Z,97146.95
2019-03-16T09:43:39.986Z,97143.13
2019-03-16T09:46:08.418Z,97148.34
2019-03-16T09:48:36.792Z,97155.09
2019-03-16T09:51:05.193Z,97152.52
2019-03-16T09:53:33.602Z,97148.94
2019-03-16T09:56:01.978Z,97152.65
2019-03-16T09:58:31.654Z,97143.42
2019-03-16T10:01:00.085Z,97152.34
2019-03-16T10:03:28.474Z,97151.52
2019-03-16T10:05:56.856Z,97150.95
2019-03-16T10:08:25.283Z,97149.17
2019-03-16T10:10:53.697Z,97145.97
2019-03-16T10:13:22.077Z,97152.71
2019-03-16T10:15:50.454Z,97159.02
2019-03-16T10:18:18.919Z,97158.14
2019-03-16T10:20:47.312Z,97150.73
2019-03-16T10:23:15.694Z,97153.93
2019-03-16T10:25:44.112Z,97156.66
2019-03-16T10:28:12.665Z,97160.08
2019-03-16T10:30:41.036Z,97162.72
2019-03-16T10:33:11.083Z,97150.86
2019-03-16T10:35:39.778Z,97151.63
2019-03-16T10:38:08.211Z,97153.81
2019-03-16T10:40:36.580Z,97152.92
2019-03-16T10:43:04.988Z,97153.20
2019-03-16T10:45:33.458Z,97148.03
2019-03-16T10:48:01.850Z,97154.61
2019-03-16T10:50:30.241Z,97163.26
2019-03-16T10:52:58.662Z,97161.67
2019-03-16T10:55:27.100Z,97163.03
2019-03-16T10:57:55.475Z,97172.59
2019-03-16T11:00:23.860Z,97169.55
2019-03-16T11:02:52.282Z,97171.24
2019-03-16T11:05:20.688Z,97173.36
2019-03-16T11:07:49.076Z,97163.48
2019-03-16T11:10:17.455Z,97170.84
2019-03-16T11:12:45.905Z,97188.66
2019-03-16T11:15:14.815Z,97188.84
2019-03-16T11:17:43.222Z,97182.09
2019-03-16T11:20:15.606Z,97184.47
2019-03-16T11:22:44.040Z,97195.40
2019-03-16T11:25:12.431Z,97196.42
2019-03-16T11:27:40.807Z,97198.72
2019-03-16T11:30:13.686Z,97195.01
2019-03-16T11:32:42.078Z,97192.89
2019-03-16T11:35:11.505Z,97194.69
2019-03-16T11:37:39.885Z,97183.95
2019-03-16T11:40:11.331Z,97183.91
2019-03-16T11:42:39.761Z,97181.67
2019-03-16T11:45:10.381Z,97172.12
2019-03-16T11:47:38.870Z,97170.71
2019-03-16T11:50:09.737Z,97161.83
2019-03-16T11:52:38.139Z,97155.25
2019-03-16T11:55:08.539Z,97143.87
2019-03-16T11:57:36.926Z,97144.58
2019-03-16T12:00:12.747Z,97132.70
2019-03-16T12:02:41.160Z,97139.30
2019-03-16T12:05:11.474Z,97140.06
2019-03-16T12:07:39.854Z,97141.23
2019-03-16T12:10:10.474Z,97125.96
2019-03-16T12:12:38.881Z,97120.75
2019-03-16T12:15:09.559Z,97115.45
2019-03-16T12:17:37.959Z,97125.50
2019-03-16T12:20:09.422Z,97111.93
2019-03-16T12:22:37.827Z,97111.16
2019-03-16T12:25:06.381Z,97115.52
2019-03-16T12:27:34.820Z,97107.77
2019-03-16T12:30:03.574Z,97111.28
2019-03-16T12:32:31.949Z,97108.17
2019-03-16T12:35:00.424Z,97112.34
2019-03-16T12:37:28.781Z,97111.81
2019-03-16T12:39:57.182Z,97102.94
2019-03-16T12:42:25.563Z,97106.30
2019-03-16T12:44:53.962Z,97088.17
2019-03-16T12:47:22.365Z,97092.78
2019-03-16T12:49:50.752Z,97068.59
2019-03-16T12:52:19.134Z,97072.84
2019-03-16T12:54:47.521Z,97075.40
2019-03-16T12:57:15.901Z,97072.25
2019-03-16T12:59:47.096Z,97078.72
2019-03-16T13:02:14.406Z,97075.84
2019-03-16T13:04:42.789Z,97064.99
2019-03-16T13:07:11.173Z,97075.01
2019-03-16T13:09:42.210Z,97065.02
2019-03-16T13:12:09.699Z,97068.80
2019-03-16T13:14:38.085Z,97074.52
2019-03-16T13:17:06.467Z,97070.58
2019-03-16T13:19:34.873Z,97075.53
2019-03-16T13:22:03.228Z,97076.63
2019-03-16T13:24:31.611Z,97068.31
2019-03-16T13:26:59.995Z,97076.78
2019-03-16T13:29:28.453Z,97068.94
2019-03-16T13:31:56.844Z,97068.80
2019-03-16T13:34:25.230Z,97054.95
2019-03-16T13:36:53.677Z,97059.37
2019-03-16T13:39:22.764Z,97051.59
2019-03-16T13:41:51.227Z,97054.02
2019-03-16T13:44:19.616Z,97055.88
2019-03-16T13:46:47.996Z,97048.48
2019-03-16T13:49:16.375Z,97049.48
2019-03-16T13:51:44.857Z,97047.47
2019-03-16T13:54:13.250Z,97042.14
2019-03-16T13:56:41.640Z,97038.39
2019-03-16T13:59:10.030Z,97027.63
2019-03-16T14:01:38.701Z,97034.50
2019-03-16T14:04:07.089Z,97026.88
2019-03-16T14:06:35.480Z,97032.45
2019-03-16T14:09:06.332Z,97030.48
2019-03-16T14:11:34.744Z,97030.27
2019-03-16T14:14:03.178Z,97022.60
2019-03-16T14:16:31.563Z,97022.31
2019-03-16T14:19:00.127Z,97012.80
2019-03-16T14:21:28.507Z,97020.79
2019-03-16T14:23:56.899Z,97011.03
2019-03-16T14:26:25.282Z,97007.70
2019-03-16T14:28:53.675Z,97005.02
2019-03-16T14:31:22.069Z,96994.14
2019-03-16T14:33:50.724Z,97001.08
2019-03-16T14:36:19.214Z,96996.13
2019-03-16T14:38:47.674Z,96994.36
2019-03-16T14:41:16.050Z,96989.97
2019-03-16T14:43:44.445Z,96988.75
2019-03-16T14:46:12.830Z,96988.63
2019-03-16T14:48:41.228Z,96985.52
2019-03-16T14:51:09.659Z,96996.44
2019-03-16T14:53:38.061Z,96996.87
2019-03-16T14:56:06.536Z,96988.27
2019-03-16T14:58:34.929Z,96990.98
2019-03-16T15:01:03.313Z,96980.61
2019-03-16T15:03:31.706Z,96977.81
2019-03-16T15:06:00.085Z,96977.27
2019-03-16T15:08:28.468Z,96974.13
2019-03-16T15:10:56.882Z,96969.33
2019-03-16T15:13:26.899Z,96977.11
2019-03-16T15:15:55.520Z,96963.98
2019-03-16T15:18:23.906Z,96968.70
2019-03-16T15:20:52.291Z,96973.61
2019-03-16T15:23:20.680Z,96968.66
2019-03-16T15:25:49.156Z,96963.16
2019-03-16T15:28:17.527Z,96969.80
2019-03-16T15:30:50.700Z,96961.70
2019-03-16T15:33:16.032Z,96963.47
2019-03-16T15:35:44.414Z,96958.67
2019-03-16T15:38:12.798Z,96956.08
2019-03-16T15:40:41.185Z,96958.52
2019-03-16T15:43:11.245Z,96952.11
2019-03-16T15:45:39.534Z,96959.27
2019-03-16T15:48:07.945Z,96949.44
2019-03-16T15:50:36.346Z,96949.98
2019-03-16T15:53:04.790Z,96951.36
2019-03-16T15:55:33.174Z,96952.27
2019-03-16T15:58:07.808Z,96947.63
2019-03-16T16:00:31.676Z,96939.45
2019-03-16T16:03:00.065Z,96934.81
2019-03-16T16:05:29.442Z,96944.01
2019-03-16T16:07:57.824Z,96935.48
2019-03-16T16:10:26.212Z,96935.64
2019-03-16T16:12:54.622Z,96931.00
2019-03-16T16:15:23.015Z,96935.55
2019-03-16T16:17:51.397Z,96934.25
2019-03-16T16:20:19.962Z,96932.59
2019-03-16T16:22:48.376Z,96927.92
2019-03-16T16:25:16.806Z,96926.78
2019-03-16T16:27:45.201Z,96926.58
2019-03-16T16:30:17.602Z,96916.44
2019-03-16T16:32:46.004Z,96919.65
2019-03-16T16:35:16.111Z,96913.83
2019-03-16T16:37:44.496Z,96917.52
2019-03-16T16:40:15.183Z,96918.56
2019-03-16T16:42:43.570Z,96923.53
2019-03-16T16:45:14.236Z,96921.09
2019-03-16T16:47:42.895Z,96923.44
2019-03-16T16:50:21.618Z,96920.09
2019-03-16T16:52:50.077Z,96916.90
2019-03-16T16:55:18.459Z,96922.98
2019-03-16T16:57:46.835Z,96927.41
2019-03-16T17:00:16.966Z,96918.85
2019-03-16T17:02:45.349Z,96920.30
2019-03-16T17:05:13.809Z,96914.90
2019-03-16T17:07:42.193Z,96906.52
2019-03-16T17:10:12.823Z,96903.83
2019-03-16T17:12:41.197Z,96906.64
2019-03-16T17:15:12.094Z,96902.75
2019-03-16T17:17:40.473Z,96907.36
2019-03-16T17:20:11.210Z,96902.47
2019-03-16T17:22:39.587Z,96902.31
2019-03-16T17:25:10.010Z,96899.11
2019-03-16T17:27:38.395Z,96898.47
2019-03-16T17:30:18.512Z,96897.70
2019-03-16T17:32:47.904Z,96896.55
2019-03-16T17:35:16.308Z,96897.48
2019-03-16T17:37:44.684Z,96892.59
2019-03-16T17:40:14.311Z,96887.23
2019-03-16T17:42:42.757Z,96875.57
2019-03-16T17:45:12.479Z,96878.07
2019-03-16T17:47:40.874Z,96869.44
2019-03-16T17:50:11.215Z,96862.88
2019-03-16T17:52:39.655Z,96858.94
2019-03-16T17:55:12.466Z,96848.88
2019-03-16T17:57:40.844Z,96850.97
2019-03-16T18:00:17.310Z,96851.16
2019-03-16T18:02:51.770Z,96850.01
2019-03-16T18:05:15.884Z,96841.23
2019-03-16T18:07:44.378Z,96848.35
2019-03-16T18:10:13.712Z,96846.86
2019-03-16T18:12:42.167Z,96847.08
2019-03-16T18:15:15.060Z,96852.38
2019-03-16T18:17:43.448Z,96854.36
2019-03-16T18:20:17.687Z,96861.11
2019-03-16T18:22:46.851Z,96859.02
2019-03-16T18:25:15.488Z,96853.98
2019-03-16T18:27:43.869Z,96853.87
2019-03-16T18:30:15.299Z,96854.12
2019-03-16T18:32:43.679Z,96845.46
2019-03-16T18:35:12.149Z,96849.06
2019-03-16T18:37:40.559Z,96851.70
2019-03-16T18:40:11.250Z,96854.34
2019-03-16T18:42:39.633Z,96851.13
2019-03-16T18:45:17.192Z,96848.78
2019-03-16T18:47:45.570Z,96850.78
2019-03-16T18:50:13.974Z,96858.83
2019-03-16T18:52:42.357Z,96857.12
2019-03-16T18:55:14.587Z,96860.45
2019-03-16T18:57:42.966Z,96863.92
2019-03-16T19:00:18.940Z,96865.33
2019-03-16T19:02:47.316Z,96861.98
2019-03-16T19:05:15.706Z,96855.59
2019-03-16T19:07:44.104Z,96851.72
2019-03-16T19:10:16.216Z,96858.11
2019-03-16T19:12:44.748Z,96858.11
2019-03-16T19:15:15.241Z,96854.42
2019-03-16T19:17:43.639Z,96849.02
2019-03-16T19:20:13.267Z,96846.58
2019-03-16T19:22:41.733Z,96845.46
2019-03-16T19:25:17.431Z,96845.23
2019-03-16T19:27:45.868Z,96850.91
2019-03-16T19:30:16.057Z,96848.04
2019-03-16T19:32:44.623Z,96844.23
2019-03-16T19:35:13.441Z,96841.83
2019-03-16T19:37:41.831Z,96844.14
2019-03-16T19:40:13.276Z,96843.39
2019-03-16T19:42:41.664Z,96847.83
2019-03-16T19:45:11.506Z,96846.28
2019-03-16T19:47:39.965Z,96846.39
2019-03-16T19:50:13.613Z,96848.68
2019-03-16T19:52:41.980Z,96847.50
2019-03-16T19:55:11.804Z,96852.87
2019-03-16T19:57:40.196Z,96846.95
2019-03-16T20:00:16.483Z,96838.55
2019-03-16T20:02:50.041Z,96833.51
2019-03-16T20:05:15.175Z,96834.50
2019-03-16T20:07:43.553Z,96836.20
2019-03-16T20:10:16.906Z,96838.10
2019-03-16T20:12:45.290Z,96842.55
2019-03-16T20:15:14.921Z,96841.11
2019-03-16T20:17:43.313Z,96837.80
2019-03-16T20:20:13.637Z,96840.64
2019-03-16T20:22:42.167Z,96844.72
2019-03-16T20:25:11.536Z,96846.61
2019-03-16T20:27:39.993Z,96845.85
2019-03-16T20:30:10.985Z,96845.13
2019-03-16T20:32:39.370Z,96839.67
2019-03-16T20:35:09.224Z,96837.20
2019-03-16T20:37:37.617Z,96835.55
2019-03-16T20:40:09.137Z,96833.53
2019-03-16T20:42:37.528Z,96829.82
2019-03-16T20:45:07.513Z,96832.49
2019-03-16T20:47:35.915Z,96828.28
2019-03-16T20:50:12.875Z,96834.35
2019-03-16T20:52:41.264Z,96829.31
2019-03-16T20:55:10.394Z,96841.02
2019-03-16T20:57:38.922Z,96820.25
2019-03-16T21:00:12.313Z,96850.69
2019-03-16T21:02:40.706Z,96848.30
2019-03-16T21:05:11.364Z,96844.58
2019-03-16T21:07:39.750Z,96854.96
2019-03-16T21:10:09.778Z,96855.05
2019-03-16T21:12:38.173Z,96854.29
2019-03-16T21:15:14.616Z,96852.27
2019-03-16T21:17:43.819Z,96848.45
2019-03-16T21:20:14.067Z,96850.34
2019-03-16T21:22:42.556Z,96856.03
2019-03-16T21:25:12.607Z,96854.02
2019-03-16T21:27:41.081Z,96849.88
2019-03-16T21:30:12.317Z,96853.87
2019-03-16T21:32:40.806Z,96856.98
2019-03-16T21:35:09.250Z,96853.31
2019-03-16T21:37:37.656Z,96847.86
2019-03-16T21:40:08.895Z,96845.37
2019-03-16T21:42:37.295Z,96843.80
2019-03-16T21:45:08.601Z,96840.04
2019-03-16T21:47:37.033Z,96835.45
2019-03-16T21:50:08.058Z,96838.52
2019-03-16T21:52:36.453Z,96834.34
2019-03-16T21:55:07.076Z,96836.69
2019-03-16T21:57:35.539Z,96805.60
2019-03-16T22:00:06.874Z,96829.23
2019-03-16T22:02:35.271Z,96822.03
2019-03-16T22:05:04.608Z,96814.83
2019-03-16T22:07:32.995Z,96819.59
2019-03-16T22:10:01.381Z,96815.42
2019-03-16T22:12:29.786Z,96814.63
2019-03-16T22:14:58.168Z,96813.48
2019-03-16T22:17:26.556Z,96807.64
2019-03-16T22:19:54.953Z,96806.48
2019-03-16T22:22:23.359Z,96806.11
2019-03-16T22:24:51.756Z,96809.63
2019-03-16T22:27:20.159Z,96809.66
2019-03-16T22:29:48.563Z,96802.84
2019-03-16T22:32:17.067Z,96805.48
2019-03-16T22:34:45.469Z,96805.66
2019-03-16T22:37:13.847Z,96803.17
2019-03-16T22:39:42.233Z,96803.17
2019-03-16T22:42:10.626Z,96799.81
2019-03-16T22:44:39.009Z,96798.20
2019-03-16T22:47:07.479Z,96798.28
2019-03-16T22:49:35.865Z,96794.55
2019-03-16T22:52:04.248Z,96795.88
2019-03-16T22:54:32.641Z,96795.91
2019-03-16T22:57:01.034Z,96793.47
2019-03-16T22:59:29.431Z,96791.81
2019-03-16T23:01:57.811Z,96791.02
2019-03-16T23:04:26.221Z,96789.37
2019-03-16T23:06:54.668Z,96783.41
2019-03-16T23:09:23.074Z,96786.43
2019-03-16T23:11:51.518Z,96775.80
2019-03-16T23:14:19.984Z,96775.80
2019-03-16T23:16:48.433Z,96768.14
2019-03-16T23:19:16.825Z,96773.23
2019-03-16T23:21:45.219Z,96768.06
2019-03-16T23:24:13.672Z,96767.20
2019-03-16T23:26:42.074Z,96760.41
2019-03-16T23:29:10.602Z,96761.69
2019-03-16T23:31:38.991Z,96758.72
2019-03-16T23:34:18.578Z,96748.45
2019-03-16T23:36:37.484Z,96750.64
2019-03-16T23:39:05.960Z,96757.47
2019-03-16T23:41:34.349Z,96751.10
2019-03-16T23:44:02.730Z,96757.13
2019-03-16T23:46:31.130Z,96754.64
2019-03-16T23:48:59.518Z,96752.16
2019-03-16T23:51:27.904Z,96757.37
2019-03-16T23:53:56.296Z,96757.94
2019-03-16T23:56:24.690Z,96758.02
2019-03-16T23:58:53.129Z,96755.53
